»·PEaware :: DL1783 KLAS-KSBA

DL1783 :: KLAS-KSBA

FLIGHT INFORMATION

Flight Status: Arrived
Operator: Unknown
More flights by this operator :: More flights under this callsign
Pilot: Michael K. (11397)
Aircraft: EMBRAER BRASILIA
(E120)
More flights by this aircraft type
Origin: KLAS McCarran Intl
United States
Destination: KSBA Santa Barbara Mun
United States
More flights between these airports :: More routes between these airports
Route: +LAS GFS HEC PMD FIM V186 DEANO V27 KWANG
File this flight plan on PilotEdge
Remarks:
Altitude:
(Current/Filed)
23,000ft
Speed:
(Current/Filed)
290kts
Departed: 19-Sep-16 08:03 PM
Arrived: 19-Sep-16 09:22 PM
Distance/Time
Traveled:
250nm/1:19
Distance/Time
To Go:
Arrived

Flight Plot

Page will automatically refresh every two minutes.


Map Options




Map Legend


Flown Route
Filed Route
Departure Airport
Arrival Airport
Navaid (VOR, NDB)
Fix

Horizontal Profiles

Position Reports

Time Latitude Longitude Heading Altitude Ground
Speed
19-Sep-16 19:09 36.090605 -115.153766 111 2095ft 0kts
19-Sep-16 19:10 36.090605 -115.153766 111 2095ft 0kts
19-Sep-16 19:11 36.090605 -115.153766 111 2095ft 0kts
19-Sep-16 19:12 36.090605 -115.153766 111 2095ft 0kts
19-Sep-16 19:13 36.090605 -115.153766 111 2095ft 0kts
19-Sep-16 19:14 36.090605 -115.153766 111 2095ft 0kts
19-Sep-16 19:15 36.090605 -115.153766 111 2095ft 0kts
19-Sep-16 19:16 36.090605 -115.153766 111 2095ft 0kts
19-Sep-16 19:17 36.090605 -115.153766 111 2095ft 0kts
19-Sep-16 19:18 36.090605 -115.153766 111 2095ft 0kts
19-Sep-16 19:19 36.090605 -115.153766 111 2095ft 0kts
19-Sep-16 19:20 36.090605 -115.153766 111 2095ft 0kts
19-Sep-16 19:21 36.090605 -115.153766 111 2095ft 0kts
19-Sep-16 19:22 36.090605 -115.153766 111 2095ft 0kts
19-Sep-16 19:23 36.090605 -115.153766 111 2095ft 0kts
19-Sep-16 19:24 36.090605 -115.153766 111 2095ft 0kts
19-Sep-16 19:25 36.090605 -115.153766 111 2095ft 0kts
19-Sep-16 19:26 36.090605 -115.153766 111 2095ft 0kts
19-Sep-16 19:27 36.090605 -115.153766 111 2095ft 0kts
19-Sep-16 19:28 36.090605 -115.153766 111 2095ft 0kts
19-Sep-16 19:29 36.090605 -115.153766 111 2095ft 0kts
19-Sep-16 19:30 36.090605 -115.153766 111 2095ft 0kts
19-Sep-16 19:31 36.090605 -115.153766 111 2095ft 0kts
19-Sep-16 19:32 36.090605 -115.153766 111 2095ft 0kts
19-Sep-16 19:33 36.090605 -115.153766 111 2095ft 0kts
19-Sep-16 19:34 36.090605 -115.153766 111 2095ft 0kts
19-Sep-16 19:35 36.090605 -115.153766 111 2095ft 0kts
19-Sep-16 19:36 36.090605 -115.153766 111 2095ft 0kts
19-Sep-16 19:37 36.090605 -115.153766 111 2095ft 0kts
19-Sep-16 19:38 36.090605 -115.153766 111 2095ft 0kts
19-Sep-16 19:39 36.090605 -115.153766 111 2095ft 0kts
19-Sep-16 19:40 36.090605 -115.153766 111 2095ft 0kts
19-Sep-16 19:41 36.090605 -115.153766 111 2095ft 0kts
19-Sep-16 19:42 36.090605 -115.153766 111 2095ft 0kts
19-Sep-16 19:43 36.090605 -115.153766 111 2095ft 0kts
19-Sep-16 19:44 36.090605 -115.153766 111 2095ft 0kts
19-Sep-16 19:45 36.090605 -115.153766 111 2095ft 0kts
19-Sep-16 19:46 36.090605 -115.153766 111 2095ft 0kts
19-Sep-16 19:47 36.090605 -115.153766 111 2095ft 0kts
19-Sep-16 19:48 36.090605 -115.153766 111 2095ft 0kts
19-Sep-16 19:49 36.090605 -115.153766 111 2095ft 0kts
19-Sep-16 19:50 36.090605 -115.153766 111 2095ft 0kts
19-Sep-16 19:51 36.090605 -115.153766 111 2095ft 0kts
19-Sep-16 19:52 36.090605 -115.153766 111 2095ft 0kts
19-Sep-16 19:53 36.090605 -115.153766 111 2095ft 0kts
19-Sep-16 19:54 36.090291 -115.153931 287 2097ft 6kts
19-Sep-16 19:55 36.092001 -115.154957 9 2095ft 12kts
19-Sep-16 19:56 36.093505 -115.154205 25 2089ft 1kts
19-Sep-16 19:57 36.094706 -115.153482 25 2083ft 2kts
19-Sep-16 19:58 36.097790 -115.152115 323 2075ft 12kts
19-Sep-16 19:59 36.098010 -115.152464 297 2076ft 0kts
19-Sep-16 20:00 36.096997 -115.154458 205 2083ft 45kts
19-Sep-16 20:01 36.066608 -115.165657 185 3267ft 151kts
19-Sep-16 20:02 36.016916 -115.172503 186 4888ft 198kts
19-Sep-16 20:03 35.960221 -115.180463 186 6455ft 216kts
19-Sep-16 20:04 35.900421 -115.188896 186 8474ft 212kts
19-Sep-16 20:05 35.841638 -115.197114 186 10487ft 211kts
19-Sep-16 20:06 35.784571 -115.205077 186 12453ft 210kts
19-Sep-16 20:07 35.725930 -115.213241 186 14482ft 209kts
19-Sep-16 20:08 35.661872 -115.222108 186 15009ft 264kts
19-Sep-16 20:09 35.586219 -115.232559 186 15002ft 287kts
19-Sep-16 20:10 35.504356 -115.243854 186 15000ft 292kts
19-Sep-16 20:11 35.425619 -115.254692 186 15000ft 293kts
19-Sep-16 20:12 35.343399 -115.266022 186 14982ft 286kts
19-Sep-16 20:13 35.264404 -115.276765 186 15346ft 279kts
19-Sep-16 20:14 35.204498 -115.285033 186 16963ft 246kts
19-Sep-16 20:15 35.139176 -115.293956 186 19004ft 221kts
19-Sep-16 20:16 35.087226 -115.332791 244 21424ft 192kts
19-Sep-16 20:17 35.071723 -115.380425 250 23123ft 173kts
19-Sep-16 20:18 35.052776 -115.452141 252 24021ft 233kts
19-Sep-16 20:19 35.035616 -115.520598 253 24009ft 279kts
19-Sep-16 20:20 35.011422 -115.617682 253 24003ft 305kts
19-Sep-16 20:21 34.986573 -115.717112 253 24001ft 315kts
19-Sep-16 20:22 34.961037 -115.818900 253 24053ft 316kts
19-Sep-16 20:23 34.934394 -115.924661 253 24071ft 319kts
19-Sep-16 20:24 34.908005 -116.028988 253 24080ft 320kts
19-Sep-16 20:25 34.882042 -116.131742 252 24089ft 317kts
19-Sep-16 20:26 34.856071 -116.234426 252 24073ft 316kts
19-Sep-16 20:27 34.830217 -116.335482 252 24042ft 316kts
19-Sep-16 20:28 34.803969 -116.437639 252 24018ft 316kts
19-Sep-16 20:29 34.789258 -116.544514 263 24018ft 316kts
19-Sep-16 20:30 34.778825 -116.649921 263 24018ft 316kts
19-Sep-16 20:31 34.768361 -116.755215 265 24019ft 316kts
19-Sep-16 20:32 34.757819 -116.861056 266 24019ft 313kts
19-Sep-16 20:33 34.747322 -116.967008 259 24026ft 314kts
19-Sep-16 20:34 34.736630 -117.071392 259 24040ft 315kts
19-Sep-16 20:35 34.725885 -117.179211 259 24051ft 315kts
19-Sep-16 20:36 34.715000 -117.285268 258 24053ft 316kts
19-Sep-16 20:37 34.703601 -117.391058 266 24056ft 313kts
19-Sep-16 20:38 34.693089 -117.494907 265 24055ft 312kts
19-Sep-16 20:39 34.681993 -117.600110 264 24056ft 312kts
19-Sep-16 20:40 34.670753 -117.705118 264 24045ft 314kts
19-Sep-16 20:41 34.659395 -117.810667 264 24034ft 315kts
19-Sep-16 20:42 34.648114 -117.914538 263 24034ft 315kts
19-Sep-16 20:43 34.636465 -118.021124 263 24041ft 315kts
19-Sep-16 20:44 34.611689 -118.122698 249 23490ft 330kts
19-Sep-16 20:45 34.576648 -118.228919 248 22490ft 337kts
19-Sep-16 20:46 34.542055 -118.332539 248 21513ft 336kts
19-Sep-16 20:47 34.505878 -118.440497 248 20489ft 333kts
19-Sep-16 20:48 34.471035 -118.544120 248 19495ft 330kts
19-Sep-16 20:49 34.436338 -118.646997 248 18493ft 328kts
19-Sep-16 20:50 34.401900 -118.748766 248 17488ft 325kts
19-Sep-16 20:51 34.368215 -118.847950 248 16503ft 323kts
19-Sep-16 20:52 34.351465 -118.954568 266 15486ft 320kts
19-Sep-16 20:53 34.343303 -119.062574 266 14477ft 318kts
19-Sep-16 20:54 34.335868 -119.165486 266 14088ft 304kts
19-Sep-16 20:55 34.328244 -119.267710 266 14089ft 297kts
19-Sep-16 20:56 34.320755 -119.366066 266 14091ft 296kts
19-Sep-16 20:57 34.313276 -119.461579 266 14085ft 263kts
19-Sep-16 20:58 34.306835 -119.544015 266 14090ft 230kts
19-Sep-16 20:59 34.301124 -119.616272 267 14091ft 208kts
19-Sep-16 21:00 34.295258 -119.691241 266 12817ft 247kts
19-Sep-16 21:01 34.288660 -119.773737 266 10844ft 243kts
19-Sep-16 21:02 34.282403 -119.851603 265 9131ft 212kts
19-Sep-16 21:03 34.277331 -119.913191 265 9088ft 162kts
19-Sep-16 21:04 34.272274 -119.975125 265 7459ft 204kts
19-Sep-16 21:05 34.280219 -120.044201 282 5455ft 208kts
19-Sep-16 21:06 34.292245 -120.111997 282 3467ft 206kts
19-Sep-16 21:07 34.303005 -120.172026 282 3088ft 154kts
19-Sep-16 21:08 34.326668 -120.190265 39 3119ft 133kts
19-Sep-16 21:09 34.355249 -120.158995 42 3091ft 132kts
19-Sep-16 21:10 34.381956 -120.129401 42 3101ft 126kts
19-Sep-16 21:11 34.407630 -120.100894 42 3101ft 128kts
19-Sep-16 21:12 34.422419 -120.063729 86 2934ft 140kts
19-Sep-16 21:13 34.423627 -120.026005 87 2794ft 119kts
19-Sep-16 21:14 34.424684 -119.980551 88 2378ft 124kts
19-Sep-16 21:15 34.425462 -119.946644 88 1649ft 117kts
19-Sep-16 21:16 34.426279 -119.909655 88 908ft 99kts
19-Sep-16 21:17 34.427041 -119.875147 88 399ft 106kts
19-Sep-16 21:18 34.427581 -119.842255 108 12ft 62kts
19-Sep-16 21:19 34.426633 -119.835221 227 12ft 1kts
19-Sep-16 21:20 34.425490 -119.837893 163 12ft 6kts
19-Sep-16 21:21 34.424905 -119.837267 117 12ft 3kts
19-Sep-16 21:22 34.424851 -119.837186 114 12ft 0kts

Navigation Log

Ident Type
Flight plan parsing failed, navigation log unavailable